sensor_id;sensor_type;location;lat;lon;timestamp;pressure;altitude;pressure_sealevel;temperature;humidity
59170;BME280;52474;52.236;5.114;2023-06-19T00:01:56;100759.19;;;21.91;100.00
59170;BME280;52474;52.236;5.114;2023-06-19T00:04:21;100751.09;;;21.84;100.00
59170;BME280;52474;52.236;5.114;2023-06-19T00:06:47;100744.84;;;21.90;100.00
59170;BME280;52474;52.236;5.114;2023-06-19T00:09:14;100764.56;;;21.97;100.00
59170;BME280;52474;52.236;5.114;2023-06-19T00:11:40;100756.50;;;21.91;100.00
59170;BME280;52474;52.236;5.114;2023-06-19T00:14:06;100762.69;;;21.84;100.00
59170;BME280;52474;52.236;5.114;2023-06-19T00:16:31;100771.41;;;21.86;100.00
59170;BME280;52474;52.236;5.114;2023-06-19T00:18:57;100766.41;;;21.90;100.00
59170;BME280;52474;52.236;5.114;2023-06-19T00:21:24;100733.25;;;21.76;100.00
59170;BME280;52474;52.236;5.114;2023-06-19T00:23:51;100771.81;;;21.97;100.00
59170;BME280;52474;52.236;5.114;2023-06-19T00:26:17;100770.38;;;21.81;100.00
59170;BME280;52474;52.236;5.114;2023-06-19T00:28:43;100768.09;;;21.64;100.00
59170;BME280;52474;52.236;5.114;2023-06-19T00:31:13;100762.69;;;21.64;100.00
59170;BME280;52474;52.236;5.114;2023-06-19T00:33:40;100772.44;;;21.59;100.00
59170;BME280;52474;52.236;5.114;2023-06-19T00:36:10;100776.56;;;21.55;100.00
59170;BME280;52474;52.236;5.114;2023-06-19T00:38:38;100770.78;;;21.51;100.00
59170;BME280;52474;52.236;5.114;2023-06-19T00:41:04;100769.94;;;21.44;100.00
59170;BME280;52474;52.236;5.114;2023-06-19T00:43:31;100759.50;;;21.28;100.00
59170;BME280;52474;52.236;5.114;2023-06-19T00:46:01;100779.38;;;21.27;100.00
59170;BME280;52474;52.236;5.114;2023-06-19T00:48:28;100775.84;;;21.26;100.00
59170;BME280;52474;52.236;5.114;2023-06-19T00:50:58;100773.56;;;21.23;100.00
59170;BME280;52474;52.236;5.114;2023-06-19T00:53:24;100780.19;;;21.20;100.00
59170;BME280;52474;52.236;5.114;2023-06-19T00:55:55;100780.16;;;21.14;100.00
59170;BME280;52474;52.236;5.114;2023-06-19T00:58:23;100780.97;;;21.08;100.00
59170;BME280;52474;52.236;5.114;2023-06-19T01:00:50;100776.00;;;21.05;100.00
59170;BME280;52474;52.236;5.114;2023-06-19T01:03:16;100771.81;;;20.95;100.00
59170;BME280;52474;52.236;5.114;2023-06-19T01:05:42;100784.00;;;20.85;100.00
59170;BME280;52474;52.236;5.114;2023-06-19T01:08:37;100790.75;;;20.74;100.00
59170;BME280;52474;52.236;5.114;2023-06-19T01:11:07;100784.69;;;20.58;100.00
59170;BME280;52474;52.236;5.114;2023-06-19T01:13:41;100784.56;;;20.45;100.00
59170;BME280;52474;52.236;5.114;2023-06-19T01:16:09;100799.50;;;20.48;100.00
59170;BME280;52474;52.236;5.114;2023-06-19T01:18:36;100798.38;;;20.35;100.00
59170;BME280;52474;52.236;5.114;2023-06-19T01:21:13;100787.09;;;20.25;100.00
59170;BME280;52474;52.236;5.114;2023-06-19T01:23:39;100805.25;;;20.16;100.00
59170;BME280;52474;52.236;5.114;2023-06-19T01:26:09;100805.19;;;20.10;100.00
59170;BME280;52474;52.236;5.114;2023-06-19T01:28:40;100808.22;;;20.00;100.00
59170;BME280;52474;52.236;5.114;2023-06-19T01:31:20;100815.22;;;19.94;100.00
59170;BME280;52474;52.236;5.114;2023-06-19T01:33:50;100813.28;;;19.88;100.00
59170;BME280;52474;52.236;5.114;2023-06-19T01:36:18;100812.66;;;19.86;100.00
59170;BME280;52474;52.236;5.114;2023-06-19T01:38:47;100818.47;;;19.90;100.00
59170;BME280;52474;52.236;5.114;2023-06-19T01:41:15;100805.28;;;19.95;100.00
59170;BME280;52474;52.236;5.114;2023-06-19T01:43:42;100803.38;;;19.89;100.00
59170;BME280;52474;52.236;5.114;2023-06-19T01:46:08;100819.19;;;19.99;100.00
59170;BME280;52474;52.236;5.114;2023-06-19T01:48:38;100822.25;;;19.95;100.00
59170;BME280;52474;52.236;5.114;2023-06-19T01:51:06;100822.06;;;19.97;100.00
59170;BME280;52474;52.236;5.114;2023-06-19T01:53:31;100804.59;;;19.86;100.00
59170;BME280;52474;52.236;5.114;2023-06-19T01:55:58;100816.63;;;19.90;100.00
59170;BME280;52474;52.236;5.114;2023-06-19T01:58:24;100825.31;;;19.92;100.00
59170;BME280;52474;52.236;5.114;2023-06-19T02:00:49;100826.34;;;19.91;100.00
59170;BME280;52474;52.236;5.114;2023-06-19T02:03:15;100821.75;;;19.85;100.00
59170;BME280;52474;52.236;5.114;2023-06-19T02:05:42;100824.63;;;19.84;100.00
59170;BME280;52474;52.236;5.114;2023-06-19T02:08:08;100819.25;;;19.84;100.00
59170;BME280;52474;52.236;5.114;2023-06-19T02:10:36;100816.28;;;19.79;100.00
59170;BME280;52474;52.236;5.114;2023-06-19T02:13:02;100828.72;;;19.80;100.00
59170;BME280;52474;52.236;5.114;2023-06-19T02:15:28;100823.91;;;19.75;100.00
59170;BME280;52474;52.236;5.114;2023-06-19T02:17:56;100823.47;;;19.71;100.00
59170;BME280;52474;52.236;5.114;2023-06-19T02:20:23;100819.94;;;19.71;100.00
59170;BME280;52474;52.236;5.114;2023-06-19T02:22:55;100827.00;;;19.72;100.00
59170;BME280;52474;52.236;5.114;2023-06-19T02:25:21;100802.19;;;19.55;100.00
59170;BME280;52474;52.236;5.114;2023-06-19T02:27:47;100825.25;;;19.64;100.00
59170;BME280;52474;52.236;5.114;2023-06-19T02:30:13;100817.09;;;19.58;100.00
59170;BME280;52474;52.236;5.114;2023-06-19T02:32:39;100830.25;;;19.67;100.00
59170;BME280;52474;52.236;5.114;2023-06-19T02:35:06;100835.41;;;19.69;100.00
59170;BME280;52474;52.236;5.114;2023-06-19T02:37:34;100837.09;;;19.70;100.00
59170;BME280;52474;52.236;5.114;2023-06-19T02:40:05;100833.59;;;19.69;100.00
59170;BME280;52474;52.236;5.114;2023-06-19T02:42:33;100843.31;;;19.70;100.00
59170;BME280;52474;52.236;5.114;2023-06-19T02:45:00;100831.63;;;19.63;100.00
59170;BME280;52474;52.236;5.114;2023-06-19T02:47:30;100844.88;;;19.65;100.00
59170;BME280;52474;52.236;5.114;2023-06-19T02:50:01;100847.72;;;19.63;100.00
59170;BME280;52474;52.236;5.114;2023-06-19T02:52:28;100837.38;;;19.60;100.00
59170;BME280;52474;52.236;5.114;2023-06-19T02:54:53;100829.25;;;19.53;100.00
59170;BME280;52474;52.236;5.114;2023-06-19T02:57:19;100849.41;;;19.64;100.00
59170;BME280;52474;52.236;5.114;2023-06-19T02:59:45;100847.09;;;19.61;100.00
59170;BME280;52474;52.236;5.114;2023-06-19T03:02:11;100844.22;;;19.63;100.00
59170;BME280;52474;52.236;5.114;2023-06-19T03:04:37;100846.25;;;19.61;100.00
59170;BME280;52474;52.236;5.114;2023-06-19T03:07:03;100848.78;;;19.62;100.00
59170;BME280;52474;52.236;5.114;2023-06-19T03:09:29;100850.25;;;19.65;100.00
59170;BME280;52474;52.236;5.114;2023-06-19T03:11:55;100836.56;;;19.60;100.00
59170;BME280;52474;52.236;5.114;2023-06-19T03:14:20;100852.94;;;19.65;100.00
59170;BME280;52474;52.236;5.114;2023-06-19T03:16:46;100845.34;;;19.53;100.00
59170;BME280;52474;52.236;5.114;2023-06-19T03:19:12;100849.34;;;19.58;100.00
59170;BME280;52474;52.236;5.114;2023-06-19T03:21:38;100859.91;;;19.59;100.00
59170;BME280;52474;52.236;5.114;2023-06-19T03:24:05;100851.00;;;19.59;100.00
59170;BME280;52474;52.236;5.114;2023-06-19T03:26:32;100835.78;;;19.44;100.00
59170;BME280;52474;52.236;5.114;2023-06-19T03:29:00;100866.19;;;19.51;100.00
59170;BME280;52474;52.236;5.114;2023-06-19T03:31:29;100866.03;;;19.53;100.00
59170;BME280;52474;52.236;5.114;2023-06-19T03:33:57;100847.91;;;19.40;100.00
59170;BME280;52474;52.236;5.114;2023-06-19T03:36:24;100877.16;;;19.50;100.00
59170;BME280;52474;52.236;5.114;2023-06-19T03:38:51;100872.72;;;19.42;100.00
59170;BME280;52474;52.236;5.114;2023-06-19T03:41:20;100870.69;;;19.44;100.00
59170;BME280;52474;52.236;5.114;2023-06-19T03:43:46;100856.69;;;19.34;100.00
59170;BME280;52474;52.236;5.114;2023-06-19T03:46:12;100883.25;;;19.44;100.00
59170;BME280;52474;52.236;5.114;2023-06-19T03:48:38;100889.84;;;19.41;100.00
59170;BME280;52474;52.236;5.114;2023-06-19T03:51:04;100894.28;;;19.34;100.00
59170;BME280;52474;52.236;5.114;2023-06-19T03:53:29;100909.59;;;19.19;100.00
59170;BME280;52474;52.236;5.114;2023-06-19T03:55:55;100915.63;;;18.91;100.00
59170;BME280;52474;52.236;5.114;2023-06-19T03:58:21;100924.09;;;18.80;100.00
59170;BME280;52474;52.236;5.114;2023-06-19T04:00:46;100919.72;;;18.64;100.00
59170;BME280;52474;52.236;5.114;2023-06-19T04:03:12;100941.88;;;18.58;100.00
59170;BME280;52474;52.236;5.114;2023-06-19T04:05:38;100947.06;;;18.59;100.00
59170;BME280;52474;52.236;5.114;2023-06-19T04:08:06;100955.94;;;18.60;100.00
59170;BME280;52474;52.236;5.114;2023-06-19T04:10:32;100949.75;;;18.59;100.00
59170;BME280;52474;52.236;5.114;2023-06-19T04:12:59;100961.81;;;18.63;100.00
59170;BME280;52474;52.236;5.114;2023-06-19T04:15:25;100945.75;;;18.55;100.00
59170;BME280;52474;52.236;5.114;2023-06-19T04:17:52;100956.97;;;18.59;100.00
59170;BME280;52474;52.236;5.114;2023-06-19T04:20:18;100978.34;;;18.67;100.00
59170;BME280;52474;52.236;5.114;2023-06-19T04:22:46;100973.34;;;18.64;100.00
59170;BME280;52474;52.236;5.114;2023-06-19T04:25:12;100963.88;;;18.53;100.00
59170;BME280;52474;52.236;5.114;2023-06-19T04:27:37;100970.91;;;18.54;100.00
59170;BME280;52474;52.236;5.114;2023-06-19T04:30:04;100986.28;;;18.60;100.00
59170;BME280;52474;52.236;5.114;2023-06-19T04:32:32;100989.09;;;18.67;100.00
59170;BME280;52474;52.236;5.114;2023-06-19T04:34:58;100994.28;;;18.69;100.00
59170;BME280;52474;52.236;5.114;2023-06-19T04:37:24;100978.72;;;18.64;100.00
59170;BME280;52474;52.236;5.114;2023-06-19T04:39:50;100991.06;;;18.73;100.00
59170;BME280;52474;52.236;5.114;2023-06-19T04:42:18;100999.28;;;18.72;100.00
59170;BME280;52474;52.236;5.114;2023-06-19T04:44:46;101010.19;;;18.70;100.00
59170;BME280;52474;52.236;5.114;2023-06-19T04:47:12;100996.31;;;18.66;100.00
59170;BME280;52474;52.236;5.114;2023-06-19T04:49:38;101013.53;;;18.72;100.00
59170;BME280;52474;52.236;5.114;2023-06-19T04:52:04;101004.09;;;18.53;100.00
59170;BME280;52474;52.236;5.114;2023-06-19T04:54:29;101028.19;;;18.61;100.00
59170;BME280;52474;52.236;5.114;2023-06-19T04:56:58;100999.63;;;18.45;100.00
59170;BME280;52474;52.236;5.114;2023-06-19T04:59:24;101015.44;;;18.63;100.00
59170;BME280;52474;52.236;5.114;2023-06-19T05:01:50;101033.69;;;18.68;100.00
59170;BME280;52474;52.236;5.114;2023-06-19T05:04:20;101038.19;;;18.67;100.00
59170;BME280;52474;52.236;5.114;2023-06-19T05:06:45;101033.69;;;18.68;100.00
59170;BME280;52474;52.236;5.114;2023-06-19T05:09:11;101031.78;;;18.77;100.00
59170;BME280;52474;52.236;5.114;2023-06-19T05:11:37;101033.13;;;18.73;100.00
59170;BME280;52474;52.236;5.114;2023-06-19T05:14:02;101016.44;;;18.62;100.00
59170;BME280;52474;52.236;5.114;2023-06-19T05:16:28;101032.47;;;18.79;100.00
59170;BME280;52474;52.236;5.114;2023-06-19T05:18:54;101020.06;;;18.70;100.00
59170;BME280;52474;52.236;5.114;2023-06-19T05:21:20;101045.34;;;18.75;100.00
59170;BME280;52474;52.236;5.114;2023-06-19T05:23:45;101043.56;;;18.76;100.00
59170;BME280;52474;52.236;5.114;2023-06-19T05:26:16;101029.03;;;18.62;100.00
59170;BME280;52474;52.236;5.114;2023-06-19T05:28:42;101070.47;;;18.82;100.00
59170;BME280;52474;52.236;5.114;2023-06-19T05:31:08;101060.28;;;18.78;100.00
59170;BME280;52474;52.236;5.114;2023-06-19T05:33:33;101063.66;;;18.72;100.00
59170;BME280;52474;52.236;5.114;2023-06-19T05:35:59;101057.78;;;18.76;100.00
59170;BME280;52474;52.236;5.114;2023-06-19T05:38:24;101051.91;;;18.73;100.00
59170;BME280;52474;52.236;5.114;2023-06-19T05:40:51;101065.66;;;18.78;100.00
59170;BME280;52474;52.236;5.114;2023-06-19T05:43:17;101062.47;;;18.74;100.00
59170;BME280;52474;52.236;5.114;2023-06-19T05:45:44;101050.41;;;18.78;100.00
59170;BME280;52474;52.236;5.114;2023-06-19T05:48:09;101073.94;;;18.91;100.00
59170;BME280;52474;52.236;5.114;2023-06-19T05:50:35;101061.34;;;18.92;100.00
59170;BME280;52474;52.236;5.114;2023-06-19T05:53:01;101074.13;;;18.90;100.00
59170;BME280;52474;52.236;5.114;2023-06-19T05:55:27;101074.66;;;18.85;100.00
59170;BME280;52474;52.236;5.114;2023-06-19T05:57:53;101070.00;;;18.79;100.00
59170;BME280;52474;52.236;5.114;2023-06-19T06:00:19;101081.13;;;18.76;100.00
59170;BME280;52474;52.236;5.114;2023-06-19T06:02:45;101094.53;;;18.67;100.00
59170;BME280;52474;52.236;5.114;2023-06-19T06:05:11;101086.19;;;18.62;100.00
59170;BME280;52474;52.236;5.114;2023-06-19T06:07:37;101098.03;;;18.76;100.00
59170;BME280;52474;52.236;5.114;2023-06-19T06:10:03;101090.13;;;18.83;100.00
59170;BME280;52474;52.236;5.114;2023-06-19T06:12:29;101095.78;;;18.88;100.00
59170;BME280;52474;52.236;5.114;2023-06-19T06:14:55;101093.31;;;19.01;100.00
59170;BME280;52474;52.236;5.114;2023-06-19T06:17:20;101100.78;;;18.91;100.00
59170;BME280;52474;52.236;5.114;2023-06-19T06:19:46;101100.72;;;18.99;100.00
59170;BME280;52474;52.236;5.114;2023-06-19T06:22:12;101100.00;;;19.05;100.00
59170;BME280;52474;52.236;5.114;2023-06-19T06:24:37;101100.09;;;19.12;100.00
59170;BME280;52474;52.236;5.114;2023-06-19T06:27:04;101124.09;;;19.14;100.00
59170;BME280;52474;52.236;5.114;2023-06-19T06:29:30;101124.91;;;19.37;100.00
59170;BME280;52474;52.236;5.114;2023-06-19T06:32:06;101130.34;;;19.44;100.00
59170;BME280;52474;52.236;5.114;2023-06-19T06:34:35;101131.09;;;19.38;100.00
59170;BME280;52474;52.236;5.114;2023-06-19T06:37:01;101140.91;;;19.30;100.00
59170;BME280;52474;52.236;5.114;2023-06-19T06:39:27;101125.09;;;19.50;100.00
59170;BME280;52474;52.236;5.114;2023-06-19T06:41:52;101147.66;;;19.64;100.00
59170;BME280;52474;52.236;5.114;2023-06-19T06:44:18;101153.72;;;19.58;100.00
59170;BME280;52474;52.236;5.114;2023-06-19T06:46:44;101151.06;;;19.58;100.00
59170;BME280;52474;52.236;5.114;2023-06-19T06:49:11;101136.91;;;19.64;100.00
59170;BME280;52474;52.236;5.114;2023-06-19T06:51:37;101158.25;;;19.81;100.00
59170;BME280;52474;52.236;5.114;2023-06-19T06:54:03;101155.44;;;19.36;100.00
59170;BME280;52474;52.236;5.114;2023-06-19T06:56:28;101167.72;;;19.16;100.00
59170;BME280;52474;52.236;5.114;2023-06-19T06:58:54;101163.69;;;18.88;100.00
59170;BME280;52474;52.236;5.114;2023-06-19T07:01:20;101166.09;;;18.83;100.00
59170;BME280;52474;52.236;5.114;2023-06-19T07:03:46;101170.28;;;18.78;100.00
59170;BME280;52474;52.236;5.114;2023-06-19T07:06:11;101181.13;;;18.93;100.00
59170;BME280;52474;52.236;5.114;2023-06-19T07:08:37;101166.19;;;18.90;100.00
59170;BME280;52474;52.236;5.114;2023-06-19T07:11:03;101180.75;;;19.19;100.00
59170;BME280;52474;52.236;5.114;2023-06-19T07:13:29;101175.03;;;18.99;100.00
59170;BME280;52474;52.236;5.114;2023-06-19T07:15:55;101172.97;;;18.78;100.00
59170;BME280;52474;52.236;5.114;2023-06-19T07:18:20;101195.03;;;18.96;100.00
59170;BME280;52474;52.236;5.114;2023-06-19T07:20:46;101195.09;;;19.11;100.00
59170;BME280;52474;52.236;5.114;2023-06-19T07:23:12;101198.00;;;19.24;100.00
59170;BME280;52474;52.236;5.114;2023-06-19T07:25:37;101199.31;;;19.89;100.00
59170;BME280;52474;52.236;5.114;2023-06-19T07:28:03;101204.16;;;20.09;100.00
59170;BME280;52474;52.236;5.114;2023-06-19T07:30:30;101209.81;;;20.29;100.00
59170;BME280;52474;52.236;5.114;2023-06-19T07:32:56;101197.19;;;20.14;100.00
59170;BME280;52474;52.236;5.114;2023-06-19T07:35:21;101208.34;;;20.26;100.00
59170;BME280;52474;52.236;5.114;2023-06-19T07:37:47;101197.47;;;20.34;100.00
59170;BME280;52474;52.236;5.114;2023-06-19T07:40:13;101205.28;;;21.38;100.00
59170;BME280;52474;52.236;5.114;2023-06-19T07:42:38;101207.69;;;21.27;100.00
59170;BME280;52474;52.236;5.114;2023-06-19T07:45:05;101211.19;;;20.69;100.00
59170;BME280;52474;52.236;5.114;2023-06-19T07:47:31;101216.84;;;20.59;100.00
59170;BME280;52474;52.236;5.114;2023-06-19T07:49:56;101222.63;;;20.56;100.00
59170;BME280;52474;52.236;5.114;2023-06-19T07:52:22;101230.22;;;20.53;100.00
59170;BME280;52474;52.236;5.114;2023-06-19T07:54:55;101233.81;;;20.30;100.00
59170;BME280;52474;52.236;5.114;2023-06-19T07:57:23;101241.25;;;20.28;100.00
59170;BME280;52474;52.236;5.114;2023-06-19T07:59:49;101235.88;;;20.28;100.00
59170;BME280;52474;52.236;5.114;2023-06-19T08:02:15;101236.72;;;20.58;100.00
59170;BME280;52474;52.236;5.114;2023-06-19T08:04:41;101219.75;;;20.94;100.00
59170;BME280;52474;52.236;5.114;2023-06-19T08:07:07;101233.84;;;21.33;100.00
59170;BME280;52474;52.236;5.114;2023-06-19T08:09:33;101227.03;;;21.58;100.00
59170;BME280;52474;52.236;5.114;2023-06-19T08:11:58;101228.59;;;21.96;100.00
59170;BME280;52474;52.236;5.114;2023-06-19T08:14:24;101234.66;;;23.49;100.00
59170;BME280;52474;52.236;5.114;2023-06-19T08:16:51;101218.41;;;28.53;100.00
59170;BME280;52474;52.236;5.114;2023-06-19T08:19:16;101223.53;;;30.08;100.00
59170;BME280;52474;52.236;5.114;2023-06-19T08:21:42;101221.00;;;29.50;100.00
59170;BME280;52474;52.236;5.114;2023-06-19T08:24:07;101230.94;;;27.48;100.00
59170;BME280;52474;52.236;5.114;2023-06-19T08:26:33;101236.13;;;26.22;100.00
59170;BME280;52474;52.236;5.114;2023-06-19T08:28:58;101239.63;;;25.28;100.00
59170;BME280;52474;52.236;5.114;2023-06-19T08:31:24;101243.31;;;24.51;100.00
59170;BME280;52474;52.236;5.114;2023-06-19T08:33:53;101241.72;;;28.25;100.00
59170;BME280;52474;52.236;5.114;2023-06-19T08:36:20;101237.16;;;30.69;100.00
59170;BME280;52474;52.236;5.114;2023-06-19T08:38:46;101245.09;;;29.70;100.00
59170;BME280;52474;52.236;5.114;2023-06-19T08:41:17;101265.09;;;28.21;100.00
59170;BME280;52474;52.236;5.114;2023-06-19T08:43:45;101256.88;;;26.71;100.00
59170;BME280;52474;52.236;5.114;2023-06-19T08:46:13;101271.59;;;25.13;100.00
59170;BME280;52474;52.236;5.114;2023-06-19T08:48:39;101281.88;;;24.13;100.00
59170;BME280;52474;52.236;5.114;2023-06-19T08:51:05;101274.28;;;25.20;100.00
59170;BME280;52474;52.236;5.114;2023-06-19T08:53:35;101283.53;;;26.81;100.00
59170;BME280;52474;52.236;5.114;2023-06-19T08:56:03;101280.56;;;26.83;100.00
59170;BME280;52474;52.236;5.114;2023-06-19T08:58:29;101278.75;;;27.67;100.00
59170;BME280;52474;52.236;5.114;2023-06-19T09:00:58;101272.66;;;27.11;100.00
59170;BME280;52474;52.236;5.114;2023-06-19T09:03:25;101272.13;;;25.92;100.00
59170;BME280;52474;52.236;5.114;2023-06-19T09:05:50;101278.69;;;25.07;100.00
59170;BME280;52474;52.236;5.114;2023-06-19T09:08:20;101281.72;;;24.86;100.00
59170;BME280;52474;52.236;5.114;2023-06-19T09:10:58;101276.69;;;23.91;100.00
59170;BME280;52474;52.236;5.114;2023-06-19T09:13:24;101275.59;;;25.42;100.00
59170;BME280;52474;52.236;5.114;2023-06-19T09:15:57;101258.88;;;27.78;100.00
59170;BME280;52474;52.236;5.114;2023-06-19T09:18:23;101279.78;;;26.20;100.00
59170;BME280;52474;52.236;5.114;2023-06-19T09:20:52;101269.88;;;26.99;100.00
59170;BME280;52474;52.236;5.114;2023-06-19T09:23:18;101281.44;;;26.95;100.00
59170;BME280;52474;52.236;5.114;2023-06-19T09:25:52;101285.75;;;25.85;100.00
59170;BME280;52474;52.236;5.114;2023-06-19T09:28:23;101296.44;;;24.52;100.00
59170;BME280;52474;52.236;5.114;2023-06-19T09:33:20;101296.28;;;24.00;100.00
59170;BME280;52474;52.236;5.114;2023-06-19T09:35:49;101301.44;;;23.68;100.00
59170;BME280;52474;52.236;5.114;2023-06-19T09:38:16;101304.66;;;23.30;100.00
59170;BME280;52474;52.236;5.114;2023-06-19T09:40:45;101308.06;;;22.56;100.00
59170;BME280;52474;52.236;5.114;2023-06-19T09:43:18;101317.63;;;22.59;100.00
59170;BME280;52474;52.236;5.114;2023-06-19T09:45:49;101323.03;;;22.52;100.00
59170;BME280;52474;52.236;5.114;2023-06-19T09:48:19;101323.84;;;22.53;100.00
59170;BME280;52474;52.236;5.114;2023-06-19T09:50:51;101307.78;;;22.16;100.00
59170;BME280;52474;52.236;5.114;2023-06-19T09:53:20;101326.78;;;22.58;100.00
59170;BME280;52474;52.236;5.114;2023-06-19T09:55:49;101315.47;;;22.19;100.00
59170;BME280;52474;52.236;5.114;2023-06-19T09:58:18;101315.22;;;23.12;100.00
59170;BME280;52474;52.236;5.114;2023-06-19T10:00:45;101340.28;;;25.39;100.00
59170;BME280;52474;52.236;5.114;2023-06-19T10:03:13;101328.94;;;25.80;100.00
59170;BME280;52474;52.236;5.114;2023-06-19T10:05:39;101343.34;;;25.81;100.00
59170;BME280;52474;52.236;5.114;2023-06-19T10:08:06;101343.25;;;25.31;100.00
59170;BME280;52474;52.236;5.114;2023-06-19T10:10:32;101345.63;;;26.59;100.00
59170;BME280;52474;52.236;5.114;2023-06-19T10:13:14;101339.44;;;28.21;100.00
59170;BME280;52474;52.236;5.114;2023-06-19T10:15:42;101355.97;;;25.62;100.00
59170;BME280;52474;52.236;5.114;2023-06-19T10:18:16;101352.00;;;25.64;100.00
59170;BME280;52474;52.236;5.114;2023-06-19T10:20:42;101350.34;;;24.40;100.00
59170;BME280;52474;52.236;5.114;2023-06-19T10:23:35;101337.44;;;24.42;100.00
59170;BME280;52474;52.236;5.114;2023-06-19T10:25:58;101335.31;;;23.64;100.00
59170;BME280;52474;52.236;5.114;2023-06-19T10:28:27;101330.47;;;25.69;100.00
59170;BME280;52474;52.236;5.114;2023-06-19T10:30:58;101342.84;;;26.66;100.00
59170;BME280;52474;52.236;5.114;2023-06-19T10:33:26;101346.28;;;27.28;100.00
59170;BME280;52474;52.236;5.114;2023-06-19T10:35:53;101341.22;;;28.16;100.00
59170;BME280;52474;52.236;5.114;2023-06-19T10:38:19;101343.75;;;29.33;100.00
59170;BME280;52474;52.236;5.114;2023-06-19T10:40:45;101334.50;;;29.06;100.00
59170;BME280;52474;52.236;5.114;2023-06-19T10:43:12;101334.00;;;28.45;100.00
59170;BME280;52474;52.236;5.114;2023-06-19T10:45:38;101339.03;;;27.22;100.00
59170;BME280;52474;52.236;5.114;2023-06-19T10:48:05;101346.28;;;27.58;100.00
59170;BME280;52474;52.236;5.114;2023-06-19T10:50:42;101335.75;;;29.27;100.00
59170;BME280;52474;52.236;5.114;2023-06-19T10:53:07;101338.66;;;31.16;100.00
59170;BME280;52474;52.236;5.114;2023-06-19T10:55:33;101318.66;;;31.16;100.00
59170;BME280;52474;52.236;5.114;2023-06-19T10:57:59;101341.41;;;30.94;100.00
59170;BME280;52474;52.236;5.114;2023-06-19T11:00:29;101339.19;;;31.40;100.00
59170;BME280;52474;52.236;5.114;2023-06-19T11:02:58;101335.50;;;31.52;100.00
59170;BME280;52474;52.236;5.114;2023-06-19T11:05:26;101331.53;;;29.07;100.00
59170;BME280;52474;52.236;5.114;2023-06-19T11:07:57;101330.19;;;28.69;100.00
59170;BME280;52474;52.236;5.114;2023-06-19T11:10:24;101328.69;;;29.02;100.00
59170;BME280;52474;52.236;5.114;2023-06-19T11:12:54;101330.22;;;29.67;100.00
59170;BME280;52474;52.236;5.114;2023-06-19T11:15:20;101323.81;;;29.62;100.00
59170;BME280;52474;52.236;5.114;2023-06-19T11:17:52;101331.38;;;28.74;100.00
59170;BME280;52474;52.236;5.114;2023-06-19T11:20:18;101329.56;;;29.77;100.00
59170;BME280;52474;52.236;5.114;2023-06-19T11:22:44;101332.72;;;29.86;100.00
59170;BME280;52474;52.236;5.114;2023-06-19T11:25:10;101332.97;;;29.10;100.00
59170;BME280;52474;52.236;5.114;2023-06-19T11:27:39;101308.41;;;27.45;100.00
59170;BME280;52474;52.236;5.114;2023-06-19T11:30:05;101331.19;;;27.14;100.00
59170;BME280;52474;52.236;5.114;2023-06-19T11:32:41;101333.84;;;28.75;100.00
59170;BME280;52474;52.236;5.114;2023-06-19T11:35:09;101329.03;;;31.36;100.00
59170;BME280;52474;52.236;5.114;2023-06-19T11:37:37;101316.75;;;30.50;100.00
59170;BME280;52474;52.236;5.114;2023-06-19T11:40:03;101332.69;;;30.97;100.00
59170;BME280;52474;52.236;5.114;2023-06-19T11:42:44;101333.75;;;31.18;100.00
59170;BME280;52474;52.236;5.114;2023-06-19T11:45:10;101324.81;;;31.55;100.00
59170;BME280;52474;52.236;5.114;2023-06-19T11:47:36;101334.34;;;31.80;100.00
59170;BME280;52474;52.236;5.114;2023-06-19T11:50:04;101326.53;;;32.79;100.00
59170;BME280;52474;52.236;5.114;2023-06-19T11:52:31;101324.81;;;31.28;100.00
59170;BME280;52474;52.236;5.114;2023-06-19T11:54:57;101322.38;;;31.54;100.00
59170;BME280;52474;52.236;5.114;2023-06-19T11:57:22;101342.97;;;33.57;100.00
59170;BME280;52474;52.236;5.114;2023-06-19T11:59:48;101344.50;;;30.81;100.00
59170;BME280;52474;52.236;5.114;2023-06-19T12:02:14;101343.03;;;30.17;100.00
59170;BME280;52474;52.236;5.114;2023-06-19T12:04:39;101336.63;;;30.63;100.00
59170;BME280;52474;52.236;5.114;2023-06-19T12:07:05;101341.81;;;30.08;100.00
59170;BME280;52474;52.236;5.114;2023-06-19T12:09:31;101342.28;;;30.39;100.00
59170;BME280;52474;52.236;5.114;2023-06-19T12:11:58;101346.31;;;30.92;100.00
59170;BME280;52474;52.236;5.114;2023-06-19T12:14:24;101347.16;;;31.69;100.00
59170;BME280;52474;52.236;5.114;2023-06-19T12:16:50;101346.75;;;32.20;100.00
59170;BME280;52474;52.236;5.114;2023-06-19T12:19:16;101349.63;;;30.55;100.00
59170;BME280;52474;52.236;5.114;2023-06-19T12:21:42;101335.25;;;30.43;100.00
59170;BME280;52474;52.236;5.114;2023-06-19T12:24:08;101340.97;;;31.84;100.00
59170;BME280;52474;52.236;5.114;2023-06-19T12:26:37;101340.44;;;31.06;100.00
59170;BME280;52474;52.236;5.114;2023-06-19T12:29:03;101358.19;;;29.17;100.00
59170;BME280;52474;52.236;5.114;2023-06-19T12:31:29;101355.16;;;29.59;100.00
59170;BME280;52474;52.236;5.114;2023-06-19T12:33:55;101351.03;;;31.73;100.00
59170;BME280;52474;52.236;5.114;2023-06-19T12:36:21;101334.91;;;31.00;100.00
59170;BME280;52474;52.236;5.114;2023-06-19T12:38:46;101329.47;;;31.28;100.00
59170;BME280;52474;52.236;5.114;2023-06-19T12:41:14;101351.66;;;30.43;100.00
59170;BME280;52474;52.236;5.114;2023-06-19T12:43:40;101349.72;;;31.27;100.00